Time;durP1;ratioP1;P1;durP2;ratioP2;P2;SDS_P1;SDS_P2;PMS_P1;PMS_P2;Temp;Humidity;BMP_temperature;BMP_pressure;BME280_temperature;BME280_humidity;BME280_pressure;Samples;Min_cycle;Max_cycle;Signal;HPM_P1;HPM_P2
2022/08/16 00:01:44;;;;;;;;;;;;;;;;;;5023309;28;20032;-58
2022/08/16 00:04:10;;;;;;;;;;;;;;;;;;5022982;28;19925;-58
2022/08/16 00:06:36;;;;;;;;;;;;;;;;;;5023652;28;20403;-57
2022/08/16 00:09:02;;;;;;;;;;;;;;;;;;5022644;28;20078;-57
2022/08/16 00:11:28;;;;;;;;;;;;;;;;;;5023360;28;19926;-57
2022/08/16 00:13:54;;;;;;;;;;;;;;;;;;5022691;28;20422;-58
2022/08/16 00:16:20;;;;;;;;;;;;;;;;;;5022912;28;19979;-58
2022/08/16 00:18:46;;;;;;;;;;;;;;;;;;5023183;28;19928;-58
2022/08/16 00:21:12;;;;;;;;;;;;;;;;;;5023284;28;19951;-58
2022/08/16 00:23:38;;;;;;;;;;;;;;;;;;5005564;28;20357;-58
2022/08/16 00:26:04;;;;;;;;;;;;;;;;;;5006020;28;19971;-58
2022/08/16 00:28:30;;;;;;;;;;;;;;;;;;5022496;28;19925;-58
2022/08/16 00:30:56;;;;;;;;;;;;;;;;;;5023492;28;20449;-57
2022/08/16 00:33:22;;;;;;;;;;;;;;;;;;5008792;28;19925;-58
2022/08/16 00:35:48;;;;;;;;;;;;;;;;;;5027120;28;19925;-58
2022/08/16 00:38:14;;;;;;;;;;;;;;;;;;5025406;28;19925;-58
2022/08/16 00:40:41;;;;;;;;;;;;;;;;;;5026998;28;19933;-58
2022/08/16 00:43:07;;;;;;;;;;;;;;;;;;5025721;28;19941;-58
2022/08/16 00:45:33;;;;;;;;;;;;;;;;;;5026527;28;19929;-57
2022/08/16 00:47:59;;;;;;;;;;;;;;;;;;5026229;28;19929;-58
2022/08/16 00:50:25;;;;;;;;;;;;;;;;;;5026700;28;19980;-57
2022/08/16 00:52:51;;;;;;;;;;;;;;;;;;5026006;28;19948;-58
2022/08/16 00:55:17;;;;;;;;;;;;;;;;;;5026135;28;20306;-58
2022/08/16 00:57:43;;;;;;;;;;;;;;;;;;5025988;28;19932;-58
2022/08/16 01:00:09;;;;;;;;;;;;;;;;;;5026320;28;19925;-61
2022/08/16 01:02:35;;;;;;;;;;;;;;;;;;5026266;28;19948;-58
2022/08/16 01:05:01;;;;;;;;;;;;;;;;;;5008644;28;19932;-58
2022/08/16 01:07:27;;;;;;;;;;;;;;;;;;5040612;23;20401;-57
2022/08/16 01:09:53;;;;;;;;;;;;;;;;;;5026650;28;19925;-58
2022/08/16 01:12:20;;;;;;;;;;;;;;;;;;5026325;28;19979;-57
2022/08/16 01:14:46;;;;;;;;;;;;;;;;;;5026424;28;20394;-57
2022/08/16 01:17:12;;;;;;;;;;;;;;;;;;5026170;28;19972;-58
2022/08/16 01:19:38;;;;;;;;;;;;;;;;;;5026789;28;19926;-57
2022/08/16 01:22:04;;;;;;;;;;;;;;;;;;5026866;28;19978;-57
2022/08/16 01:24:30;;;;;;;;;;;;;;;;;;5025494;28;19921;-57
2022/08/16 01:26:56;;;;;;;;;;;;;;;;;;5025422;28;19925;-57
2022/08/16 01:29:22;;;;;;;;;;;;;;;;;;5025465;28;19925;-57
2022/08/16 01:31:48;;;;;;;;;;;;;;;;;;5025838;28;19926;-57
2022/08/16 01:34:14;;;;;;;;;;;;;;;;;;5026093;28;19925;-57
2022/08/16 01:36:40;;;;;;;;;;;;;;;;;;5026377;28;19948;-57
2022/08/16 01:39:06;;;;;;;;;;;;;;;;;;5025566;28;20011;-57
2022/08/16 01:41:32;;;;;;;;;;;;;;;;;;5025743;28;19929;-58
2022/08/16 01:43:58;;;;;;;;;;;;;;;;;;5024084;28;19926;-58
2022/08/16 01:46:26;;;;;;;;;;;;;;;;;;5024525;28;20333;-57
2022/08/16 01:48:52;;;;;;;;;;;;;;;;;;5025942;28;20030;-57
2022/08/16 01:51:19;;;;;;;;;;;;;;;;;;5025771;28;20038;-58
2022/08/16 01:53:45;;;;;;;;;;;;;;;;;;5025272;28;19925;-58
2022/08/16 01:56:11;;;;;;;;;;;;;;;;;;5025109;28;19932;-58
2022/08/16 01:58:37;;;;;;;;;;;;;;;;;;5025662;28;20314;-57
2022/08/16 02:01:03;;;;;;;;;;;;;;;;;;5025782;28;19925;-57
2022/08/16 02:03:29;;;;;;;;;;;;;;;;;;5025364;28;19936;-58
2022/08/16 02:05:55;;;;;;;;;;;;;;;;;;5025397;28;19932;-57
2022/08/16 02:08:21;;;;;;;;;;;;;;;;;;5024227;28;20399;-57
2022/08/16 02:10:47;;;;;;;;;;;;;;;;;;5025475;28;20404;-57
2022/08/16 02:13:13;;;;;;;;;;;;;;;;;;5024755;28;19957;-57
2022/08/16 02:15:40;;;;;;;;;;;;;;;;;;5025807;28;20015;-59
2022/08/16 02:18:06;;;;;;;;;;;;;;;;;;5025744;28;19921;-57
2022/08/16 02:20:32;;;;;;;;;;;;;;;;;;5025264;28;19925;-57
2022/08/16 02:22:58;;;;;;;;;;;;;;;;;;5024795;28;19928;-58
2022/08/16 02:25:25;;;;;;;;;;;;;;;;;;5025038;28;19928;-57
2022/08/16 02:27:51;;;;;;;;;;;;;;;;;;5024762;28;19929;-57
2022/08/16 02:30:17;;;;;;;;;;;;;;;;;;5007331;28;20357;-57
2022/08/16 02:32:43;;;;;;;;;;;;;;;;;;5025229;28;19925;-57
2022/08/16 02:35:09;;;;;;;;;;;;;;;;;;5025200;28;19925;-59
2022/08/16 02:37:35;;;;;;;;;;;;;;;;;;5024609;28;19968;-57
2022/08/16 02:40:01;;;;;;;;;;;;;;;;;;5024753;28;20433;-57
2022/08/16 02:42:27;;;;;;;;;;;;;;;;;;5024267;28;19936;-57
2022/08/16 02:44:53;;;;;;;;;;;;;;;;;;5025007;28;19925;-57
2022/08/16 02:47:19;;;;;;;;;;;;;;;;;;5024570;28;19925;-57
2022/08/16 02:49:45;;;;;;;;;;;;;;;;;;5024815;28;19932;-57
2022/08/16 02:52:11;;;;;;;;;;;;;;;;;;5023752;28;19925;-58
2022/08/16 02:54:37;;;;;;;;;;;;;;;;;;5024677;28;19925;-57
2022/08/16 02:57:03;;;;;;;;;;;;;;;;;;5024172;28;19932;-57
2022/08/16 02:59:29;;;;;;;;;;;;;;;;;;5024670;28;19929;-57
2022/08/16 03:01:55;;;;;;;;;;;;;;;;;;5024656;28;20504;-57
2022/08/16 03:04:21;;;;;;;;;;;;;;;;;;5024300;28;20044;-57
2022/08/16 03:06:47;;;;;;;;;;;;;;;;;;5024376;28;19929;-57
2022/08/16 03:09:13;;;;;;;;;;;;;;;;;;5023694;28;20488;-57
2022/08/16 03:11:39;;;;;;;;;;;;;;;;;;5023836;28;19925;-59
2022/08/16 03:14:05;;;;;;;;;;;;;;;;;;5024906;28;20015;-58
2022/08/16 03:16:31;;;;;;;;;;;;;;;;;;5024265;28;19932;-57
2022/08/16 03:18:58;;;;;;;;;;;;;;;;;;5024467;28;19925;-57
2022/08/16 03:21:24;;;;;;;;;;;;;;;;;;5024251;28;19932;-57
2022/08/16 03:23:50;;;;;;;;;;;;;;;;;;5023770;28;19932;-57
2022/08/16 03:26:16;;;;;;;;;;;;;;;;;;5023330;28;19925;-57
2022/08/16 03:28:42;;;;;;;;;;;;;;;;;;5024216;28;19925;-57
2022/08/16 03:31:08;;;;;;;;;;;;;;;;;;5024079;28;20314;-57
2022/08/16 03:33:34;;;;;;;;;;;;;;;;;;5024633;28;19932;-57
2022/08/16 03:36:00;;;;;;;;;;;;;;;;;;5006539;28;19929;-57
2022/08/16 03:38:26;;;;;;;;;;;;;;;;;;5023273;28;19932;-57
2022/08/16 03:40:52;;;;;;;;;;;;;;;;;;5023727;28;20007;-57
2022/08/16 03:43:18;;;;;;;;;;;;;;;;;;5023804;28;19925;-57
2022/08/16 03:45:44;;;;;;;;;;;;;;;;;;5024341;28;19929;-57
2022/08/16 03:48:10;;;;;;;;;;;;;;;;;;5023776;28;19925;-58
2022/08/16 03:50:36;;;;;;;;;;;;;;;;;;5024432;28;20048;-57
2022/08/16 03:53:02;;;;;;;;;;;;;;;;;;5023428;28;20020;-57
2022/08/16 03:55:28;;;;;;;;;;;;;;;;;;5023434;28;20020;-57
2022/08/16 03:57:54;;;;;;;;;;;;;;;;;;5024137;28;19925;-57
2022/08/16 04:00:20;;;;;;;;;;;;;;;;;;5006353;28;19971;-57
2022/08/16 04:02:46;;;;;;;;;;;;;;;;;;5024271;28;19925;-57
2022/08/16 04:05:12;;;;;;;;;;;;;;;;;;5023710;28;19925;-57
2022/08/16 04:07:38;;;;;;;;;;;;;;;;;;5025930;28;19926;-57
2022/08/16 04:10:04;;;;;;;;;;;;;;;;;;5027431;28;19929;-57
2022/08/16 04:12:30;;;;;;;;;;;;;;;;;;5027605;28;19929;-57
2022/08/16 04:14:56;;;;;;;;;;;;;;;;;;5027666;28;19925;-57
2022/08/16 04:17:22;;;;;;;;;;;;;;;;;;5027664;28;19991;-57
2022/08/16 04:19:49;;;;;;;;;;;;;;;;;;5027615;28;19925;-57
2022/08/16 04:22:15;;;;;;;;;;;;;;;;;;5026535;28;20555;-57
2022/08/16 04:24:41;;;;;;;;;;;;;;;;;;5026810;28;19931;-57
2022/08/16 04:27:07;;;;;;;;;;;;;;;;;;5027832;28;19945;-57
2022/08/16 04:29:33;;;;;;;;;;;;;;;;;;5027115;28;20615;-57
2022/08/16 04:31:59;;;;;;;;;;;;;;;;;;5027388;28;20131;-57
2022/08/16 04:34:25;;;;;;;;;;;;;;;;;;5027134;28;20023;-57
2022/08/16 04:36:51;;;;;;;;;;;;;;;;;;5026357;28;20642;-58
2022/08/16 04:39:17;;;;;;;;;;;;;;;;;;5026237;28;19929;-57
2022/08/16 04:41:43;;;;;;;;;;;;;;;;;;5027436;28;19978;-57
2022/08/16 04:44:09;;;;;;;;;;;;;;;;;;5027053;28;19925;-59
2022/08/16 04:46:35;;;;;;;;;;;;;;;;;;5026990;28;20023;-57
2022/08/16 04:49:01;;;;;;;;;;;;;;;;;;5027126;28;19925;-57
2022/08/16 04:51:27;;;;;;;;;;;;;;;;;;5026752;28;19978;-57
2022/08/16 04:53:53;;;;;;;;;;;;;;;;;;5025815;28;20289;-57
2022/08/16 04:56:19;;;;;;;;;;;;;;;;;;5026660;28;19925;-57
2022/08/16 04:58:45;;;;;;;;;;;;;;;;;;5026998;28;20400;-57
2022/08/16 05:01:11;;;;;;;;;;;;;;;;;;5026726;28;19925;-58
2022/08/16 05:03:37;;;;;;;;;;;;;;;;;;5027042;28;20397;-57
2022/08/16 05:06:03;;;;;;;;;;;;;;;;;;5026820;28;19948;-57
2022/08/16 05:08:29;;;;;;;;;;;;;;;;;;5007626;28;19933;-57
2022/08/16 05:10:55;;;;;;;;;;;;;;;;;;5026673;28;19925;-57
2022/08/16 05:13:22;;;;;;;;;;;;;;;;;;5026215;28;19991;-57
2022/08/16 05:15:48;;;;;;;;;;;;;;;;;;5026543;28;19957;-58
2022/08/16 05:18:14;;;;;;;;;;;;;;;;;;5026127;28;19979;-57
2022/08/16 05:20:40;;;;;;;;;;;;;;;;;;5026553;28;19933;-58
2022/08/16 05:23:06;;;;;;;;;;;;;;;;;;5026035;28;19944;-57
2022/08/16 05:25:32;;;;;;;;;;;;;;;;;;5025750;28;19932;-58
2022/08/16 05:27:58;;;;;;;;;;;;;;;;;;5026267;28;19925;-58
2022/08/16 05:30:24;;;;;;;;;;;;;;;;;;5025967;28;19925;-57
2022/08/16 05:32:50;;;;;;;;;;;;;;;;;;5026093;28;19929;-57
2022/08/16 05:35:16;;;;;;;;;;;;;;;;;;5025775;28;19935;-58
2022/08/16 05:37:42;;;;;;;;;;;;;;;;;;5025160;28;19928;-57
2022/08/16 05:40:08;;;;;;;;;;;;;;;;;;5026130;28;20383;-58
2022/08/16 05:42:34;;;;;;;;;;;;;;;;;;5026318;28;19925;-57
2022/08/16 05:45:00;;;;;;;;;;;;;;;;;;5025844;28;19925;-57
2022/08/16 05:47:26;;;;;;;;;;;;;;;;;;5025732;28;20341;-57
2022/08/16 05:49:52;;;;;;;;;;;;;;;;;;5025648;28;19925;-57
2022/08/16 05:52:18;;;;;;;;;;;;;;;;;;5025097;28;19932;-58
2022/08/16 05:54:44;;;;;;;;;;;;;;;;;;5025418;28;19932;-57
2022/08/16 05:57:10;;;;;;;;;;;;;;;;;;5025444;28;19932;-58
2022/08/16 05:59:36;;;;;;;;;;;;;;;;;;5025917;28;19925;-57
2022/08/16 06:02:02;;;;;;;;;;;;;;;;;;5025493;28;19929;-57
2022/08/16 06:04:28;;;;;;;;;;;;;;;;;;5025381;28;19934;-57
2022/08/16 06:06:54;;;;;;;;;;;;;;;;;;5024861;28;19929;-57
2022/08/16 06:09:20;;;;;;;;;;;;;;;;;;5024746;28;19925;-58
2022/08/16 06:11:46;;;;;;;;;;;;;;;;;;5025383;28;20705;-57
2022/08/16 06:14:12;;;;;;;;;;;;;;;;;;5025295;28;19987;-58
2022/08/16 06:16:38;;;;;;;;;;;;;;;;;;5024455;28;19929;-58
2022/08/16 06:19:04;;;;;;;;;;;;;;;;;;5025466;28;19925;-58
2022/08/16 06:21:30;;;;;;;;;;;;;;;;;;5024769;28;19932;-58
2022/08/16 06:23:56;;;;;;;;;;;;;;;;;;5024063;28;20390;-57
2022/08/16 06:26:22;;;;;;;;;;;;;;;;;;5024329;28;19924;-58
2022/08/16 06:28:48;;;;;;;;;;;;;;;;;;5023296;28;19979;-58
2022/08/16 06:31:14;;;;;;;;;;;;;;;;;;5021660;28;19921;-60
2022/08/16 06:33:41;;;;;;;;;;;;;;;;;;5021103;28;19979;-58
2022/08/16 06:36:08;;;;;;;;;;;;;;;;;;5022872;28;19961;-58
2022/08/16 06:38:34;;;;;;;;;;;;;;;;;;5021260;28;19928;-60
2022/08/16 06:41:00;;;;;;;;;;;;;;;;;;5006851;28;20437;-58
2022/08/16 06:43:26;;;;;;;;;;;;;;;;;;5020368;28;19925;-60
2022/08/16 06:45:52;;;;;;;;;;;;;;;;;;5021459;28;19968;-59
2022/08/16 06:48:20;;;;;;;;;;;;;;;;;;5019470;28;20302;-59
2022/08/16 06:50:50;;;;;;;;;;;;;;;;;;5021871;28;19933;-59
2022/08/16 06:53:16;;;;;;;;;;;;;;;;;;5021488;28;19975;-60
2022/08/16 06:55:43;;;;;;;;;;;;;;;;;;5002683;28;19925;-58
2022/08/16 06:58:09;;;;;;;;;;;;;;;;;;5018194;28;19929;-59
2022/08/16 07:00:35;;;;;;;;;;;;;;;;;;5023511;28;19925;-59
2022/08/16 07:03:01;;;;;;;;;;;;;;;;;;5020427;28;19925;-58
2022/08/16 07:05:30;;;;;;;;;;;;;;;;;;5018185;28;19979;-58
2022/08/16 07:07:56;;;;;;;;;;;;;;;;;;5019827;28;19925;-58
2022/08/16 07:10:22;;;;;;;;;;;;;;;;;;5022719;28;19936;-58
2022/08/16 07:12:49;;;;;;;;;;;;;;;;;;5022183;28;19929;-58
2022/08/16 07:15:15;;;;;;;;;;;;;;;;;;5020809;28;19932;-58
2022/08/16 07:17:43;;;;;;;;;;;;;;;;;;5022516;28;19936;-58
2022/08/16 07:20:09;;;;;;;;;;;;;;;;;;5021366;28;19947;-59
2022/08/16 07:22:35;;;;;;;;;;;;;;;;;;5022143;28;19933;-58
2022/08/16 07:25:01;;;;;;;;;;;;;;;;;;5022345;28;19932;-57
2022/08/16 07:27:27;;;;;;;;;;;;;;;;;;5020352;28;19932;-58
2022/08/16 07:29:53;;;;;;;;;;;;;;;;;;5021999;28;19925;-58
2022/08/16 07:32:20;;;;;;;;;;;;;;;;;;5021911;28;20381;-58
2022/08/16 07:34:46;;;;;;;;;;;;;;;;;;5019507;28;19933;-57
2022/08/16 07:37:12;;;;;;;;;;;;;;;;;;5017853;28;19925;-58
2022/08/16 07:39:38;;;;;;;;;;;;;;;;;;5017987;28;19936;-57
2022/08/16 07:42:04;;;;;;;;;;;;;;;;;;5021187;28;19929;-57
2022/08/16 07:44:30;;;;;;;;;;;;;;;;;;5025401;28;19928;-57
2022/08/16 07:46:56;;;;;;;;;;;;;;;;;;5024900;28;19933;-57
2022/08/16 07:49:22;;;;;;;;;;;;;;;;;;5013039;28;20669;-58
2022/08/16 07:51:48;;;;;;;;;;;;;;;;;;5026678;28;19932;-57
2022/08/16 07:54:14;;;;;;;;;;;;;;;;;;5026794;28;19932;-57
2022/08/16 07:56:40;;;;;;;;;;;;;;;;;;5027622;28;19925;-57
2022/08/16 07:59:06;;;;;;;;;;;;;;;;;;5027939;28;19925;-57
2022/08/16 08:01:33;;;;;;;;;;;;;;;;;;5027754;28;19925;-57
2022/08/16 08:03:59;;;;;;;;;;;;;;;;;;5028001;28;19929;-57
2022/08/16 08:06:27;;;;;;;;;;;;;;;;;;5026707;28;19931;-57
2022/08/16 08:08:53;;;;;;;;;;;;;;;;;;5027134;28;20389;-57
2022/08/16 08:11:19;;;;;;;;;;;;;;;;;;5026730;28;19986;-57
2022/08/16 08:13:45;;;;;;;;;;;;;;;;;;5027119;28;19925;-57
2022/08/16 08:16:11;;;;;;;;;;;;;;;;;;5026951;28;19931;-57
2022/08/16 08:18:39;;;;;;;;;;;;;;;;;;5027299;28;20305;-57
2022/08/16 08:21:06;;;;;;;;;;;;;;;;;;5027800;28;20032;-57
2022/08/16 08:23:35;;;;;;;;;;;;;;;;;;5025958;28;20452;-57
2022/08/16 08:26:02;;;;;;;;;;;;;;;;;;5027457;28;19925;-58
2022/08/16 08:28:29;;;;;;;;;;;;;;;;;;5026655;28;19925;-57
2022/08/16 08:30:55;;;;;;;;;;;;;;;;;;5027262;28;19948;-58
2022/08/16 08:33:21;;;;;;;;;;;;;;;;;;5009329;28;20333;-58
2022/08/16 08:35:47;;;;;;;;;;;;;;;;;;5026748;28;19980;-57
2022/08/16 08:38:14;;;;;;;;;;;;;;;;;;5025938;28;19979;-57
2022/08/16 08:40:40;;;;;;;;;;;;;;;;;;5027004;28;19928;-58
2022/08/16 08:43:09;;;;;;;;;;;;;;;;;;5027055;28;19929;-57
2022/08/16 08:45:35;;;;;;;;;;;;;;;;;;5026706;28;20378;-57
2022/08/16 08:48:01;;;;;;;;;;;;;;;;;;5013246;28;20566;-57
2022/08/16 08:50:27;;;;;;;;;;;;;;;;;;5003587;28;20036;-57
2022/08/16 08:52:54;;;;;;;;;;;;;;;;;;5003552;28;19929;-57
2022/08/16 08:55:21;;;;;;;;;;;;;;;;;;5004214;28;19999;-57
2022/08/16 08:57:47;;;;;;;;;;;;;;;;;;5004851;28;19948;-57
2022/08/16 09:00:13;;;;;;;;;;;;;;;;;;5003995;28;20016;-57
2022/08/16 09:02:39;;;;;;;;;;;;;;;;;;5004653;28;20025;-57
2022/08/16 09:05:06;;;;;;;;;;;;;;;;;;5004345;28;19960;-57
2022/08/16 09:07:32;;;;;;;;;;;;;;;;;;5003585;28;20399;-57
2022/08/16 09:09:58;;;;;;;;;;;;;;;;;;5004176;28;19972;-57
2022/08/16 09:12:25;;;;;;;;;;;;;;;;;;5003213;28;19929;-57
2022/08/16 09:14:51;;;;;;;;;;;;;;;;;;5004191;28;20024;-57
2022/08/16 09:17:17;;;;;;;;;;;;;;;;;;5004003;28;20008;-57
2022/08/16 09:19:43;;;;;;;;;;;;;;;;;;5003757;28;19937;-58
2022/08/16 09:22:09;;;;;;;;;;;;;;;;;;5003163;28;19926;-58
2022/08/16 09:24:35;;;;;;;;;;;;;;;;;;5004072;28;20013;-57
2022/08/16 09:27:01;;;;;;;;;;;;;;;;;;5004149;28;19925;-57
2022/08/16 09:29:27;;;;;;;;;;;;;;;;;;5003862;28;20016;-57
2022/08/16 09:31:53;;;;;;;;;;;;;;;;;;5003713;28;20024;-57
2022/08/16 09:34:19;;;;;;;;;;;;;;;;;;5003186;28;20030;-57
2022/08/16 09:36:45;;;;;;;;;;;;;;;;;;5001935;28;20673;-57
2022/08/16 09:39:11;;;;;;;;;;;;;;;;;;5017261;28;19929;-57
2022/08/16 09:41:37;;;;;;;;;;;;;;;;;;5023872;28;19929;-58
2022/08/16 09:44:03;;;;;;;;;;;;;;;;;;5006156;28;19925;-57
2022/08/16 09:46:29;;;;;;;;;;;;;;;;;;5023233;28;20468;-57
2022/08/16 09:48:57;;;;;;;;;;;;;;;;;;5022922;28;19929;-57
2022/08/16 09:51:25;;;;;;;;;;;;;;;;;;5022486;28;19956;-58
2022/08/16 09:53:51;;;;;;;;;;;;;;;;;;5023140;28;19927;-58
2022/08/16 09:56:17;;;;;;;;;;;;;;;;;;5022683;28;20310;-58
2022/08/16 09:58:43;;;;;;;;;;;;;;;;;;5022463;28;19918;-58
2022/08/16 10:01:09;;;;;;;;;;;;;;;;;;5022519;28;19936;-58
2022/08/16 10:03:35;;;;;;;;;;;;;;;;;;5022240;28;20306;-58
2022/08/16 10:06:01;;;;;;;;;;;;;;;;;;5021807;28;19925;-58
2022/08/16 10:08:27;;;;;;;;;;;;;;;;;;5021971;28;19929;-58
2022/08/16 10:13:40;;;;;;;;;;;;;;;;;;5023421;28;20020;-58
2022/08/16 10:16:07;;;;;;;;;;;;;;;;;;5023073;28;19925;-58
2022/08/16 10:18:34;;;;;;;;;;;;;;;;;;5021879;28;20054;-58
2022/08/16 10:21:00;;;;;;;;;;;;;;;;;;5021745;28;20017;-58
2022/08/16 10:23:28;;;;;;;;;;;;;;;;;;5021921;28;19936;-58
2022/08/16 10:25:54;;;;;;;;;;;;;;;;;;5022608;28;20016;-59
2022/08/16 10:28:20;;;;;;;;;;;;;;;;;;5022052;28;20039;-58
2022/08/16 10:30:46;;;;;;;;;;;;;;;;;;5022798;28;19925;-58
2022/08/16 10:33:12;;;;;;;;;;;;;;;;;;5022315;28;19925;-58
2022/08/16 10:35:38;;;;;;;;;;;;;;;;;;5022528;28;19925;-57
2022/08/16 10:38:04;;;;;;;;;;;;;;;;;;5021560;28;19929;-58
2022/08/16 10:40:30;;;;;;;;;;;;;;;;;;5021452;28;19965;-58
2022/08/16 10:42:58;;;;;;;;;;;;;;;;;;5022120;28;20287;-58
2022/08/16 10:45:24;;;;;;;;;;;;;;;;;;5020992;28;19929;-59
2022/08/16 10:47:50;;;;;;;;;;;;;;;;;;5021731;28;19956;-58
2022/08/16 10:50:17;;;;;;;;;;;;;;;;;;5022150;28;20351;-58
2022/08/16 10:52:43;;;;;;;;;;;;;;;;;;5021630;28;19925;-58
2022/08/16 10:55:11;;;;;;;;;;;;;;;;;;5021614;28;19935;-59
2022/08/16 10:57:37;;;;;;;;;;;;;;;;;;5021780;28;19932;-58
2022/08/16 11:00:06;;;;;;;;;;;;;;;;;;5021735;28;19925;-58
2022/08/16 11:02:32;;;;;;;;;;;;;;;;;;5022127;28;19987;-58
2022/08/16 11:04:58;;;;;;;;;;;;;;;;;;5021991;28;19968;-58
2022/08/16 11:07:24;;;;;;;;;;;;;;;;;;5020506;28;19988;-58
2022/08/16 11:09:50;;;;;;;;;;;;;;;;;;5021906;28;19960;-58
2022/08/16 11:12:17;;;;;;;;;;;;;;;;;;5020874;28;20374;-58
2022/08/16 11:14:43;;;;;;;;;;;;;;;;;;5021689;28;19932;-58
2022/08/16 11:17:09;;;;;;;;;;;;;;;;;;5021284;28;19929;-61
2022/08/16 11:19:35;;;;;;;;;;;;;;;;;;5022078;28;19929;-58
2022/08/16 11:22:01;;;;;;;;;;;;;;;;;;5020754;28;19932;-58
2022/08/16 11:24:27;;;;;;;;;;;;;;;;;;5021286;28;20446;-58
2022/08/16 11:26:54;;;;;;;;;;;;;;;;;;5021509;28;19925;-58
2022/08/16 11:29:20;;;;;;;;;;;;;;;;;;5020891;28;19935;-58
2022/08/16 11:31:48;;;;;;;;;;;;;;;;;;5020656;28;20488;-57
2022/08/16 11:34:14;;;;;;;;;;;;;;;;;;5021162;28;20425;-58
2022/08/16 11:36:40;;;;;;;;;;;;;;;;;;5020308;28;19930;-57
2022/08/16 11:39:06;;;;;;;;;;;;;;;;;;5021004;28;20417;-57
2022/08/16 11:41:34;;;;;;;;;;;;;;;;;;5020791;28;19925;-58
2022/08/16 11:44:00;;;;;;;;;;;;;;;;;;5021590;28;19929;-57
2022/08/16 11:46:26;;;;;;;;;;;;;;;;;;5021266;28;20015;-58
2022/08/16 11:48:53;;;;;;;;;;;;;;;;;;5020629;28;19925;-57
2022/08/16 11:51:20;;;;;;;;;;;;;;;;;;5020515;28;20578;-57
2022/08/16 11:53:46;;;;;;;;;;;;;;;;;;5021264;28;20019;-57
2022/08/16 11:56:12;;;;;;;;;;;;;;;;;;5020448;28;20012;-58
2022/08/16 11:58:38;;;;;;;;;;;;;;;;;;5021183;28;20481;-58
2022/08/16 12:01:04;;;;;;;;;;;;;;;;;;5021434;28;19936;-58
2022/08/16 12:03:30;;;;;;;;;;;;;;;;;;5020680;28;19929;-57
2022/08/16 12:05:56;;;;;;;;;;;;;;;;;;5020369;28;20020;-57
2022/08/16 12:08:22;;;;;;;;;;;;;;;;;;5020663;28;20024;-58
2022/08/16 12:10:48;;;;;;;;;;;;;;;;;;5020572;28;19944;-57
2022/08/16 12:13:14;;;;;;;;;;;;;;;;;;5020907;28;20210;-58
2022/08/16 12:15:40;;;;;;;;;;;;;;;;;;5021682;28;19929;-58
2022/08/16 12:18:06;;;;;;;;;;;;;;;;;;5021367;28;19925;-57
2022/08/16 12:20:32;;;;;;;;;;;;;;;;;;5020444;28;19932;-60
2022/08/16 12:22:58;;;;;;;;;;;;;;;;;;5020288;28;20425;-58
2022/08/16 12:25:24;;;;;;;;;;;;;;;;;;5020194;28;19925;-57
2022/08/16 12:27:50;;;;;;;;;;;;;;;;;;5021918;28;20187;-58
2022/08/16 12:30:16;;;;;;;;;;;;;;;;;;5024658;28;20318;-58
2022/08/16 12:32:42;;;;;;;;;;;;;;;;;;5024768;28;19932;-58
2022/08/16 12:35:08;;;;;;;;;;;;;;;;;;5024870;28;19932;-59
2022/08/16 12:37:35;;;;;;;;;;;;;;;;;;5024546;28;19991;-57
2022/08/16 12:40:01;;;;;;;;;;;;;;;;;;5023919;28;19933;-57
2022/08/16 12:42:28;;;;;;;;;;;;;;;;;;5023772;28;19933;-57
2022/08/16 12:44:54;;;;;;;;;;;;;;;;;;5024454;28;19928;-57
2022/08/16 12:50:04;;;;;;;;;;;;;;;;;;5025020;28;19951;-57
2022/08/16 12:52:30;;;;;;;;;;;;;;;;;;5022620;28;20264;-57
2022/08/16 12:54:56;;;;;;;;;;;;;;;;;;5024174;28;19947;-57
2022/08/16 12:57:24;;;;;;;;;;;;;;;;;;5024472;28;19933;-57
2022/08/16 12:59:50;;;;;;;;;;;;;;;;;;5024227;28;19925;-57
2022/08/16 13:02:16;;;;;;;;;;;;;;;;;;5023864;28;20524;-58
2022/08/16 13:04:42;;;;;;;;;;;;;;;;;;5024054;28;19932;-58
2022/08/16 13:07:08;;;;;;;;;;;;;;;;;;5022923;28;19956;-58
2022/08/16 13:09:41;;;;;;;;;;;;;;;;;;5024461;28;20628;-58
2022/08/16 13:12:18;;;;;;;;;;;;;;;;;;5024130;28;19925;-56
2022/08/16 13:14:44;;;;;;;;;;;;;;;;;;5023642;28;20012;-57
2022/08/16 13:17:12;;;;;;;;;;;;;;;;;;5021811;28;21266;-58
2022/08/16 13:19:38;;;;;;;;;;;;;;;;;;5024259;28;19936;-58
2022/08/16 13:22:04;;;;;;;;;;;;;;;;;;5022697;28;20028;-58
2022/08/16 13:24:30;;;;;;;;;;;;;;;;;;5022729;28;19926;-58
2022/08/16 13:26:56;;;;;;;;;;;;;;;;;;5023667;28;19929;-58
2022/08/16 13:29:22;;;;;;;;;;;;;;;;;;5022851;28;19932;-58
2022/08/16 13:31:48;;;;;;;;;;;;;;;;;;5022600;28;20011;-58
2022/08/16 13:34:14;;;;;;;;;;;;;;;;;;5022993;28;20391;-58
2022/08/16 13:36:41;;;;;;;;;;;;;;;;;;5022587;28;19987;-58
2022/08/16 13:39:08;;;;;;;;;;;;;;;;;;5023626;28;19929;-58
2022/08/16 13:41:34;;;;;;;;;;;;;;;;;;5023419;28;20394;-58
2022/08/16 13:44:00;;;;;;;;;;;;;;;;;;5023685;28;19929;-58
2022/08/16 13:46:26;;;;;;;;;;;;;;;;;;5022648;28;19936;-58
2022/08/16 13:48:52;;;;;;;;;;;;;;;;;;5023138;28;19937;-58
2022/08/16 13:51:18;;;;;;;;;;;;;;;;;;5021549;28;19940;-58
2022/08/16 13:53:45;;;;;;;;;;;;;;;;;;5023015;28;19924;-59
2022/08/16 13:56:11;;;;;;;;;;;;;;;;;;5022668;28;19929;-58
2022/08/16 13:58:37;;;;;;;;;;;;;;;;;;5022150;28;20067;-59
2022/08/16 14:01:03;;;;;;;;;;;;;;;;;;5022695;28;19935;-58
2022/08/16 14:03:29;;;;;;;;;;;;;;;;;;5022847;28;19935;-58
2022/08/16 14:05:55;;;;;;;;;;;;;;;;;;5022513;28;19925;-58
2022/08/16 14:08:21;;;;;;;;;;;;;;;;;;5021900;28;20024;-59
2022/08/16 14:10:47;;;;;;;;;;;;;;;;;;5022943;28;20046;-59
2022/08/16 14:13:13;;;;;;;;;;;;;;;;;;5022796;28;20386;-58
2022/08/16 14:15:39;;;;;;;;;;;;;;;;;;5022400;28;20004;-59
2022/08/16 14:18:05;;;;;;;;;;;;;;;;;;5023552;28;19929;-59
2022/08/16 14:20:31;;;;;;;;;;;;;;;;;;5021958;28;20027;-59
2022/08/16 14:22:58;;;;;;;;;;;;;;;;;;5022710;28;20083;-59
2022/08/16 14:25:24;;;;;;;;;;;;;;;;;;5022410;28;19929;-58
2022/08/16 14:27:50;;;;;;;;;;;;;;;;;;5022834;28;20285;-59
2022/08/16 14:30:16;;;;;;;;;;;;;;;;;;5021999;28;19928;-59
2022/08/16 14:32:42;;;;;;;;;;;;;;;;;;5022595;28;20293;-59
2022/08/16 14:35:09;;;;;;;;;;;;;;;;;;5021709;28;20392;-59
2022/08/16 14:37:35;;;;;;;;;;;;;;;;;;5021905;28;20024;-58
2022/08/16 14:40:01;;;;;;;;;;;;;;;;;;5021963;28;19929;-58
2022/08/16 14:42:27;;;;;;;;;;;;;;;;;;5021874;28;19937;-58
2022/08/16 14:44:54;;;;;;;;;;;;;;;;;;5021641;28;19940;-58
2022/08/16 14:47:21;;;;;;;;;;;;;;;;;;5021230;28;19932;-58
2022/08/16 14:49:47;;;;;;;;;;;;;;;;;;5021808;28;19929;-58
2022/08/16 14:52:13;;;;;;;;;;;;;;;;;;5020798;28;19932;-58
2022/08/16 14:54:39;;;;;;;;;;;;;;;;;;5021370;28;19925;-59
2022/08/16 14:57:05;;;;;;;;;;;;;;;;;;5003292;28;20291;-58
2022/08/16 14:59:31;;;;;;;;;;;;;;;;;;5021269;28;19921;-58
2022/08/16 15:01:57;;;;;;;;;;;;;;;;;;5021635;28;20011;-58
2022/08/16 15:04:23;;;;;;;;;;;;;;;;;;5021911;28;20438;-59
2022/08/16 15:06:49;;;;;;;;;;;;;;;;;;5020893;28;19925;-58
2022/08/16 15:09:15;;;;;;;;;;;;;;;;;;5021630;28;19929;-58
2022/08/16 15:11:41;;;;;;;;;;;;;;;;;;5021486;28;20015;-58
2022/08/16 15:14:07;;;;;;;;;;;;;;;;;;5021609;28;19932;-58
2022/08/16 15:16:34;;;;;;;;;;;;;;;;;;5022179;28;19940;-58
2022/08/16 15:19:00;;;;;;;;;;;;;;;;;;5021841;28;19951;-58
2022/08/16 15:21:26;;;;;;;;;;;;;;;;;;5021041;28;19925;-58
2022/08/16 15:23:52;;;;;;;;;;;;;;;;;;5021795;28;19960;-58
2022/08/16 15:26:18;;;;;;;;;;;;;;;;;;5021549;28;19929;-58
2022/08/16 15:28:44;;;;;;;;;;;;;;;;;;5021119;28;20000;-58
2022/08/16 15:31:11;;;;;;;;;;;;;;;;;;5021408;28;19925;-59
2022/08/16 15:33:37;;;;;;;;;;;;;;;;;;5021845;28;19976;-58
2022/08/16 15:36:03;;;;;;;;;;;;;;;;;;5020427;28;19926;-58
2022/08/16 15:38:29;;;;;;;;;;;;;;;;;;5021228;28;20035;-58
2022/08/16 15:40:55;;;;;;;;;;;;;;;;;;5021415;28;20028;-58
2022/08/16 15:43:21;;;;;;;;;;;;;;;;;;5020706;28;19948;-57
2022/08/16 15:48:32;;;;;;;;;;;;;;;;;;5020622;28;19933;-58
2022/08/16 15:50:58;;;;;;;;;;;;;;;;;;5020824;28;19929;-58
2022/08/16 15:53:26;;;;;;;;;;;;;;;;;;5002871;28;20090;-58
2022/08/16 15:55:52;;;;;;;;;;;;;;;;;;5021393;28;19936;-57
2022/08/16 15:58:18;;;;;;;;;;;;;;;;;;5021116;28;19925;-58
2022/08/16 16:00:44;;;;;;;;;;;;;;;;;;5021081;28;20053;-58
2022/08/16 16:03:10;;;;;;;;;;;;;;;;;;5022140;28;19952;-58
2022/08/16 16:05:36;;;;;;;;;;;;;;;;;;5024793;28;19944;-58
2022/08/16 16:08:02;;;;;;;;;;;;;;;;;;5024638;28;20298;-57
2022/08/16 16:10:28;;;;;;;;;;;;;;;;;;5025128;28;19936;-57
2022/08/16 16:12:54;;;;;;;;;;;;;;;;;;5024920;28;19932;-57
2022/08/16 16:15:20;;;;;;;;;;;;;;;;;;5024960;28;19939;-57
2022/08/16 16:17:46;;;;;;;;;;;;;;;;;;5025462;28;19925;-57
2022/08/16 16:20:13;;;;;;;;;;;;;;;;;;5024224;28;20060;-57
2022/08/16 16:22:39;;;;;;;;;;;;;;;;;;5006686;28;20590;-61
2022/08/16 16:25:05;;;;;;;;;;;;;;;;;;5022992;28;19925;-57
2022/08/16 16:27:31;;;;;;;;;;;;;;;;;;5021494;28;19932;-57
2022/08/16 16:29:57;;;;;;;;;;;;;;;;;;5026917;28;19925;-57
2022/08/16 16:32:24;;;;;;;;;;;;;;;;;;5026832;28;19929;-57
2022/08/16 16:34:50;;;;;;;;;;;;;;;;;;5027174;28;19925;-57
2022/08/16 16:37:16;;;;;;;;;;;;;;;;;;5025932;28;19932;-57
2022/08/16 16:39:42;;;;;;;;;;;;;;;;;;5026892;28;19925;-57
2022/08/16 16:42:08;;;;;;;;;;;;;;;;;;5027312;28;20028;-57
2022/08/16 16:44:34;;;;;;;;;;;;;;;;;;5027365;28;19924;-57
2022/08/16 16:47:00;;;;;;;;;;;;;;;;;;5026978;28;19952;-57